Terminal Aerodrome Forecast
Issued by NWS Wilmington, OH

Current Version | Previous Version | Text Only | Print | Product List | Glossary On
Versions: 1 2 3 4 5 6 7 8 9 10 11 12 13 14 15 16 17 18 19 20 21 22 23 24
119
FTUS41 KILN 022116 AAA
TAFDAY
TAF AMD
KDAY 022116Z 0221/0318 01008KT P6SM BKN015 OVC040
     FM030100 02006KT P6SM SCT015 OVC025
     FM030900 02006KT 6SM BR BKN012 OVC022
     FM031400 36006KT P6SM SCT012 OVC022=

USA.gov is the U.S. government's official web portal to all federal, state and local government web resources and services.